Evansville (EVV/KEVV)

Map

Destinations

Information

Location
Evansville, IN
Local Time
08:14 / 8:14 am
GMT Time
14:14 / 2:14 pm
Gates
Unassigned
No FAA reported delays
METAR KEVV 221354Z 02005KT 10SM CLR 11/08 A2951 RMK AO2 SLP992 T01060083
TAF KEVV 221128Z 2212/2312 07003KT P6SM SCT050 OVC100 FM221800 04008KT 6SM -SHRA BR BKN050 OVC080 FM230200 35015G25KT P6SM OVC050
  • No charts available